Time;durP1;ratioP1;P1;durP2;ratioP2;P2;SDS_P1;SDS_P2;PMS_P1;PMS_P2;Temp;Humidity;BMP_temperature;BMP_pressure;BME280_temperature;BME280_humidity;BME280_pressure;Samples;Min_cycle;Max_cycle;Signal;HPM_P1;HPM_P2
2023/01/13 00:02:02;;;;;;;6.15;1.83;;;9.50;99.90;;;;;;5031229;28;20045;-68
2023/01/13 00:04:30;;;;;;;4.20;1.42;;;9.50;99.90;;;;;;5031686;28;20500;-68
2023/01/13 00:06:58;;;;;;;3.10;1.65;;;9.50;99.90;;;;;;5030696;28;20069;-67
2023/01/13 00:09:25;;;;;;;3.88;1.70;;;9.50;99.90;;;;;;5032455;28;20496;-68
2023/01/13 00:11:52;;;;;;;3.55;1.70;;;9.60;99.90;;;;;;5031894;28;20045;-68
2023/01/13 00:14:20;;;;;;;2.25;1.30;;;9.60;99.90;;;;;;5032473;28;20396;-68
2023/01/13 00:16:47;;;;;;;2.20;1.30;;;9.60;99.90;;;;;;5014639;28;20405;-68
2023/01/13 00:19:15;;;;;;;4.38;1.55;;;9.60;99.90;;;;;;5033049;28;20444;-68
2023/01/13 00:21:42;;;;;;;4.90;1.60;;;9.60;99.90;;;;;;5032130;28;20049;-68
2023/01/13 00:24:10;;;;;;;2.95;1.50;;;9.60;99.90;;;;;;5016042;28;20420;-67
2023/01/13 00:26:37;;;;;;;2.75;1.50;;;9.50;99.90;;;;;;5033424;28;20361;-68
2023/01/13 00:29:05;;;;;;;3.20;1.50;;;9.60;99.90;;;;;;5033924;28;20072;-68
2023/01/13 00:31:32;;;;;;;4.10;1.40;;;9.60;99.90;;;;;;5031317;28;20412;-67
2023/01/13 00:34:00;;;;;;;3.95;1.58;;;9.60;99.90;;;;;;5033549;28;20049;-68
2023/01/13 00:36:29;;;;;;;3.78;1.45;;;9.60;99.90;;;;;;5033011;28;20079;-67
2023/01/13 00:38:56;;;;;;;4.30;1.98;;;9.60;99.90;;;;;;5029505;28;20152;-67
2023/01/13 00:41:26;;;;;;;2.63;1.40;;;9.60;99.90;;;;;;5032138;28;20049;-65
2023/01/13 00:43:53;;;;;;;4.95;1.67;;;9.70;99.90;;;;;;5032502;28;20080;-67
2023/01/13 00:46:21;;;;;;;5.82;1.60;;;9.60;99.90;;;;;;5033217;28;20072;-66
2023/01/13 00:48:50;;;;;;;3.72;1.58;;;9.70;99.90;;;;;;5031897;28;20095;-66
2023/01/13 00:51:19;;;;;;;4.32;1.80;;;9.70;99.90;;;;;;5032997;28;20072;-67
2023/01/13 00:53:49;;;;;;;7.38;1.75;;;9.60;99.90;;;;;;5031860;28;20064;-66
2023/01/13 00:56:22;;;;;;;3.78;1.65;;;9.60;99.90;;;;;;5033175;28;20446;-66
2023/01/13 00:59:06;;;;;;;3.70;1.60;;;9.60;99.90;;;;;;5031812;28;20037;-66
2023/01/13 01:01:34;;;;;;;4.45;1.48;;;9.60;99.90;;;;;;5032627;28;20074;-67
2023/01/13 01:04:02;;;;;;;4.65;1.40;;;9.60;99.90;;;;;;5033264;28;20115;-66
2023/01/13 01:06:29;;;;;;;6.32;1.92;;;9.60;99.90;;;;;;5032419;28;20416;-67
2023/01/13 01:08:57;;;;;;;3.10;1.55;;;9.70;99.90;;;;;;5015496;28;20049;-67
2023/01/13 01:11:29;;;;;;;4.68;1.60;;;9.70;99.90;;;;;;5014764;28;20038;-66
2023/01/13 01:13:59;;;;;;;3.92;1.98;;;9.70;99.90;;;;;;5033186;28;20065;-66
2023/01/13 01:16:29;;;;;;;4.20;1.30;;;9.70;99.90;;;;;;5032619;28;20124;-67
2023/01/13 01:18:57;;;;;;;3.60;1.45;;;9.60;99.90;;;;;;5030960;28;20488;-66
2023/01/13 01:21:27;;;;;;;4.68;1.42;;;9.60;99.90;;;;;;5029070;28;20384;-66
2023/01/13 01:23:54;;;;;;;2.65;1.30;;;9.70;99.90;;;;;;5014997;28;20501;-66
2023/01/13 01:26:23;;;;;;;3.70;1.60;;;9.70;99.90;;;;;;5032304;28;20091;-68
2023/01/13 01:28:52;;;;;;;1.83;1.33;;;9.60;99.90;;;;;;5032748;28;20056;-69
2023/01/13 01:31:26;;;;;;;2.75;1.40;;;9.60;99.90;;;;;;5032252;28;20061;-68
2023/01/13 01:33:54;;;;;;;3.78;1.58;;;9.70;99.90;;;;;;5032649;28;20045;-68
2023/01/13 01:36:25;;;;;;;3.55;1.42;;;9.70;99.90;;;;;;5032539;28;20120;-67
2023/01/13 01:38:56;;;;;;;2.83;1.50;;;9.70;99.90;;;;;;5032307;28;20045;-68
2023/01/13 01:41:26;;;;;;;6.30;1.48;;;9.70;99.90;;;;;;5031132;28;20282;-68
2023/01/13 01:44:07;;;;;;;3.15;1.58;;;9.70;99.90;;;;;;5031207;28;20045;-68
2023/01/13 01:46:36;;;;;;;3.17;1.75;;;9.70;99.90;;;;;;5029888;28;20049;-68
2023/01/13 01:49:29;;;;;;;3.00;1.30;;;9.80;99.90;;;;;;5034338;28;20528;-69
2023/01/13 01:52:15;;;;;;;3.67;1.80;;;9.70;99.90;;;;;;5030986;28;20417;-68
2023/01/13 01:54:59;;;;;;;2.25;1.50;;;9.80;99.90;;;;;;5031082;28;20084;-67
2023/01/13 01:57:31;;;;;;;5.38;1.40;;;9.70;99.90;;;;;;5041631;28;20041;-69
2023/01/13 02:00:00;;;;;;;4.28;1.50;;;9.80;99.90;;;;;;5042186;28;20049;-69
2023/01/13 02:02:39;;;;;;;4.32;1.50;;;9.80;99.90;;;;;;5032174;28;20081;-67
2023/01/13 02:05:06;;;;;;;3.13;1.35;;;9.70;99.90;;;;;;5012156;28;20068;-67
2023/01/13 02:07:37;;;;;;;4.57;1.75;;;9.70;99.90;;;;;;5039753;28;20075;-67
2023/01/13 02:10:08;;;;;;;6.05;1.50;;;9.70;99.90;;;;;;5050391;28;20049;-67
2023/01/13 02:12:37;;;;;;;4.30;1.73;;;9.70;99.90;;;;;;5032332;28;20396;-68
2023/01/13 02:15:10;;;;;;;2.42;1.33;;;9.70;99.90;;;;;;5051413;28;20055;-69
2023/01/13 02:18:05;;;;;;;5.30;1.83;;;9.70;99.90;;;;;;5046727;28;20072;-67
2023/01/13 02:20:51;;;;;;;3.67;1.60;;;9.70;99.90;;;;;;5050861;28;20063;-67
2023/01/13 02:26:29;;;;;;;4.60;1.42;;;9.70;99.90;;;;;;5049061;28;20041;-68
2023/01/13 02:32:47;;;;;;;3.17;1.30;;;9.80;99.90;;;;;;5048930;28;20056;-69
2023/01/13 02:35:52;;;;;;;4.00;1.35;;;9.70;99.90;;;;;;5046979;28;20557;-68
2023/01/13 02:38:28;;;;;;;2.92;1.35;;;9.80;99.90;;;;;;5009280;28;20041;-70
2023/01/13 02:44:05;;;;;;;5.47;1.50;;;9.70;99.90;;;;;;5011205;28;20033;-70
2023/01/13 02:44:07;;;;;;;2.97;1.55;;;9.70;99.90;;;;;;5030656;28;20575;-68
2023/01/13 02:46:50;;;;;;;3.45;1.65;;;9.70;99.90;;;;;;5030391;28;20072;-69
2023/01/13 02:49:41;;;;;;;2.75;1.55;;;9.80;99.90;;;;;;5031267;28;20049;-69
2023/01/13 02:52:18;;;;;;;3.88;1.30;;;9.80;99.90;;;;;;5012137;28;20056;-69
2023/01/13 02:54:53;;;;;;;3.35;1.30;;;9.80;99.90;;;;;;5024502;28;20056;-68
2023/01/13 02:57:23;;;;;;;5.70;1.50;;;9.80;99.90;;;;;;5048911;28;20041;-68
2023/01/13 02:59:54;;;;;;;3.38;1.20;;;9.90;99.90;;;;;;5049483;28;20381;-68
2023/01/13 03:02:22;;;;;;;3.60;1.50;;;9.90;99.90;;;;;;5050098;28;20144;-69
2023/01/13 03:04:55;;;;;;;2.35;1.60;;;9.90;99.90;;;;;;5048658;28;20048;-69
2023/01/13 03:07:41;;;;;;;3.22;1.58;;;9.90;99.90;;;;;;5024098;28;20511;-68
2023/01/13 03:10:39;;;;;;;3.22;1.45;;;9.90;99.90;;;;;;5010706;28;20045;-68
2023/01/13 03:13:33;;;;;;;3.72;1.50;;;9.90;99.90;;;;;;5009113;28;20532;-68
2023/01/13 03:16:39;;;;;;;1.90;1.40;;;10.00;99.90;;;;;;5012637;28;20038;-69
2023/01/13 03:19:24;;;;;;;3.10;1.52;;;10.00;99.90;;;;;;5041364;28;20066;-67
2023/01/13 03:21:55;;;;;;;3.53;1.42;;;10.00;99.90;;;;;;5009694;28;20048;-69
2023/01/13 03:24:28;;;;;;;3.00;1.50;;;9.90;99.90;;;;;;5011914;28;20050;-69
2023/01/13 03:27:25;;;;;;;2.92;1.65;;;9.90;99.90;;;;;;5014542;28;20145;-68
2023/01/13 03:30:25;;;;;;;4.60;1.45;;;9.90;99.90;;;;;;5025235;28;20099;-68
2023/01/13 03:33:00;;;;;;;3.65;1.45;;;9.80;99.90;;;;;;5033157;28;20393;-68
2023/01/13 03:35:33;;;;;;;3.08;1.50;;;9.80;99.90;;;;;;5033524;28;20492;-68
2023/01/13 03:38:10;;;;;;;5.38;1.80;;;9.80;99.90;;;;;;5036044;28;20521;-68
2023/01/13 03:40:44;;;;;;;2.88;1.40;;;9.80;99.90;;;;;;5049902;28;20053;-69
2023/01/13 03:46:11;;;;;;;4.05;1.40;;;9.60;99.90;;;;;;5051024;28;20049;-68
2023/01/13 03:48:41;;;;;;;4.15;1.75;;;9.60;99.90;;;;;;5054036;28;20052;-68
2023/01/13 03:51:15;;;;;;;5.82;1.85;;;9.60;99.90;;;;;;5053256;28;20124;-69
2023/01/13 03:53:51;;;;;;;2.38;1.58;;;9.60;99.90;;;;;;5049588;28;20519;-68
2023/01/13 03:56:40;;;;;;;4.32;1.60;;;9.60;99.90;;;;;;5043563;28;20049;-69
2023/01/13 03:59:13;;;;;;;4.20;1.60;;;9.60;99.90;;;;;;5054040;28;20479;-68
2023/01/13 04:02:01;;;;;;;5.65;1.50;;;9.70;99.90;;;;;;5034600;28;20051;-66
2023/01/13 04:04:34;;;;;;;4.07;1.58;;;9.60;99.90;;;;;;5033985;28;20049;-67
2023/01/13 04:07:40;;;;;;;3.80;1.85;;;9.60;99.90;;;;;;5034064;28;20046;-68
2023/01/13 04:10:13;;;;;;;2.97;1.48;;;9.60;99.90;;;;;;5032896;28;20148;-68
2023/01/13 04:12:59;;;;;;;2.83;1.33;;;9.60;99.90;;;;;;5033548;28;20043;-67
2023/01/13 04:15:30;;;;;;;3.25;1.60;;;9.50;99.90;;;;;;5032149;28;20056;-68
2023/01/13 04:18:08;;;;;;;2.80;1.45;;;9.50;99.90;;;;;;5032207;28;20042;-67
2023/01/13 04:20:36;;;;;;;3.67;1.70;;;9.50;99.90;;;;;;5032559;28;20061;-68
2023/01/13 04:23:03;;;;;;;3.38;1.40;;;9.50;99.90;;;;;;5032842;28;20041;-68
2023/01/13 04:25:31;;;;;;;4.00;1.92;;;9.50;99.90;;;;;;5033712;28;20053;-68
2023/01/13 04:27:58;;;;;;;3.83;1.45;;;9.50;99.90;;;;;;5042196;28;20051;-68
2023/01/13 04:30:25;;;;;;;2.60;1.48;;;9.50;99.90;;;;;;5051147;28;20414;-68
2023/01/13 04:32:52;;;;;;;7.70;1.67;;;9.50;99.90;;;;;;5051352;28;20388;-69
2023/01/13 04:35:20;;;;;;;5.65;1.65;;;9.50;99.90;;;;;;5051680;28;20040;-68
2023/01/13 04:37:47;;;;;;;5.63;1.65;;;9.40;99.90;;;;;;5035417;28;20392;-68
2023/01/13 04:40:15;;;;;;;2.85;1.45;;;9.40;99.90;;;;;;5032461;28;20048;-68
2023/01/13 04:42:43;;;;;;;5.78;1.77;;;9.40;99.90;;;;;;5048804;28;20041;-68
2023/01/13 04:45:11;;;;;;;3.33;1.67;;;9.40;99.90;;;;;;5051941;28;20152;-68
2023/01/13 04:47:40;;;;;;;5.70;1.55;;;9.30;99.90;;;;;;5051727;28;20087;-69
2023/01/13 04:50:11;;;;;;;3.63;1.50;;;9.40;99.90;;;;;;5053491;28;20567;-69
2023/01/13 04:52:38;;;;;;;5.03;1.85;;;9.40;99.90;;;;;;5035644;28;20464;-69
2023/01/13 04:55:06;;;;;;;3.42;1.70;;;9.30;99.90;;;;;;5031138;28;20064;-69
2023/01/13 04:57:34;;;;;;;4.50;1.55;;;9.40;99.90;;;;;;5032088;28;20041;-68
2023/01/13 05:00:01;;;;;;;3.60;1.90;;;9.40;99.90;;;;;;5043330;28;20151;-68
2023/01/13 05:02:28;;;;;;;2.13;1.20;;;9.40;99.90;;;;;;5052408;28;20059;-69
2023/01/13 05:04:55;;;;;;;2.53;1.45;;;9.40;99.90;;;;;;5050766;28;20048;-68
2023/01/13 05:07:23;;;;;;;2.53;1.60;;;9.40;99.90;;;;;;5050410;28;20412;-69
2023/01/13 05:09:50;;;;;;;3.50;1.50;;;9.30;99.90;;;;;;5050924;28;20052;-69
2023/01/13 05:17:50;;;;;;;3.72;1.60;;;9.30;99.90;;;;;;5030159;28;20474;-68
2023/01/13 05:20:17;;;;;;;3.55;1.70;;;9.30;99.90;;;;;;5032454;28;20255;-67
2023/01/13 05:25:30;;;;;;;2.60;1.63;;;9.30;99.90;;;;;;5051927;28;20048;-70
2023/01/13 05:27:58;;;;;;;2.80;1.40;;;9.40;99.90;;;;;;5051471;28;20048;-68
2023/01/13 05:30:28;;;;;;;4.20;1.60;;;9.40;99.90;;;;;;5052225;28;20060;-69
2023/01/13 05:32:56;;;;;;;3.22;1.75;;;9.30;99.90;;;;;;5051407;28;20499;-67
2023/01/13 05:35:24;;;;;;;5.20;1.80;;;9.40;99.90;;;;;;5042868;28;20439;-68
2023/01/13 05:37:53;;;;;;;2.67;1.73;;;9.40;99.90;;;;;;5029806;28;20056;-68
2023/01/13 05:43:19;;;;;;;2.80;1.48;;;9.40;99.90;;;;;;5030681;28;20053;-68
2023/01/13 05:46:03;;;;;;;6.45;1.58;;;9.40;99.90;;;;;;5031150;28;20045;-67
2023/01/13 05:48:33;;;;;;;3.15;1.58;;;9.40;99.90;;;;;;5045168;28;20499;-68
2023/01/13 05:51:03;;;;;;;5.03;1.60;;;9.40;99.90;;;;;;5050822;28;20056;-68
2023/01/13 05:53:31;;;;;;;3.92;1.40;;;9.40;99.90;;;;;;5047149;28;20037;-68
2023/01/13 05:55:58;;;;;;;4.82;1.60;;;9.40;99.90;;;;;;5031936;28;20120;-68
2023/01/13 05:58:27;;;;;;;3.13;1.70;;;9.40;99.90;;;;;;5030564;28;20048;-69
2023/01/13 06:01:14;;;;;;;4.05;1.50;;;9.50;99.90;;;;;;5037136;28;20049;-68
2023/01/13 06:03:42;;;;;;;4.55;1.65;;;9.50;99.90;;;;;;5049982;28;20057;-68
2023/01/13 06:06:09;;;;;;;4.88;1.65;;;9.50;99.90;;;;;;5045912;28;20053;-68
2023/01/13 06:08:36;;;;;;;4.43;1.58;;;9.40;99.90;;;;;;5031653;28;20067;-68
2023/01/13 06:11:06;;;;;;;3.60;1.50;;;9.40;99.90;;;;;;5030263;28;20068;-68
2023/01/13 06:13:33;;;;;;;4.65;1.75;;;9.50;99.90;;;;;;5030182;28;20116;-69
2023/01/13 06:16:00;;;;;;;3.63;1.80;;;9.50;99.90;;;;;;5030354;28;20045;-70
2023/01/13 06:18:28;;;;;;;3.97;1.40;;;9.50;99.90;;;;;;5022575;28;20073;-70
2023/01/13 06:20:56;;;;;;;5.47;1.90;;;9.50;99.90;;;;;;5030086;28;20195;-70
2023/01/13 06:23:23;;;;;;;5.13;1.83;;;9.50;99.90;;;;;;5029952;28;20507;-68
2023/01/13 06:26:14;;;;;;;4.35;1.77;;;9.40;99.90;;;;;;5031061;28;20524;-68
2023/01/13 06:28:42;;;;;;;4.63;1.90;;;9.50;99.90;;;;;;5031398;28;20103;-69
2023/01/13 06:31:09;;;;;;;4.75;1.90;;;9.40;99.90;;;;;;5031235;28;20480;-68
2023/01/13 06:33:47;;;;;;;4.45;2.08;;;9.50;99.90;;;;;;5029936;28;20060;-69
2023/01/13 06:36:23;;;;;;;9.30;2.13;;;9.50;99.90;;;;;;5031155;28;20041;-68
2023/01/13 06:38:55;;;;;;;5.28;2.15;;;9.50;99.90;;;;;;5031140;28;20484;-68
2023/01/13 06:43:13;;;;;;;4.93;2.00;;;9.50;99.90;;;;;;5031159;28;20041;-69
2023/01/13 06:44:10;;;;;;;4.05;2.00;;;9.50;99.90;;;;;;5031188;28;20052;-68
2023/01/13 06:46:37;;;;;;;5.47;2.03;;;9.50;99.90;;;;;;5023540;28;20046;-68
2023/01/13 06:49:06;;;;;;;3.30;1.80;;;9.50;99.90;;;;;;5026528;28;20049;-68
2023/01/13 06:51:33;;;;;;;3.50;1.80;;;9.40;99.90;;;;;;5026925;28;20365;-69
2023/01/13 06:54:00;;;;;;;4.25;1.77;;;9.40;99.90;;;;;;5028540;28;20068;-68
2023/01/13 06:56:27;;;;;;;4.07;2.13;;;9.40;99.90;;;;;;5030477;28;20508;-68
2023/01/13 06:58:55;;;;;;;5.35;1.70;;;9.40;99.90;;;;;;5029098;28;20041;-67
2023/01/13 07:01:22;;;;;;;4.90;2.10;;;9.40;99.90;;;;;;5030324;28;20510;-69
2023/01/13 07:03:49;;;;;;;3.97;2.10;;;9.40;99.90;;;;;;5027506;28;20056;-69
2023/01/13 07:06:17;;;;;;;7.32;1.90;;;9.40;99.90;;;;;;5030734;28;20495;-69
2023/01/13 07:08:44;;;;;;;6.50;1.80;;;9.40;99.90;;;;;;5030486;28;20060;-72
2023/01/13 07:11:11;;;;;;;6.90;2.13;;;9.40;99.90;;;;;;5010084;28;20041;-71
2023/01/13 07:16:26;;;;;;;4.20;1.90;;;9.30;99.90;;;;;;5024413;28;20046;-71
2023/01/13 07:18:54;;;;;;;6.05;1.70;;;9.30;99.90;;;;;;5026987;28;20046;-70
2023/01/13 07:21:21;;;;;;;4.03;1.70;;;9.40;99.90;;;;;;5027420;28;20049;-70
2023/01/13 07:23:48;;;;;;;4.95;2.00;;;9.30;99.90;;;;;;5027492;28;20045;-70
2023/01/13 07:26:16;;;;;;;4.35;1.88;;;9.40;99.90;;;;;;5007625;28;20389;-71
2023/01/13 07:28:43;;;;;;;7.80;2.08;;;9.40;99.90;;;;;;5027728;28;20042;-70
2023/01/13 07:31:17;;;;;;;4.60;2.20;;;9.30;99.90;;;;;;5027436;28;20045;-72
2023/01/13 07:33:45;;;;;;;6.25;2.20;;;9.30;99.90;;;;;;5026920;28;20034;-69
2023/01/13 07:36:13;;;;;;;4.90;2.28;;;9.30;99.90;;;;;;5028724;28;20046;-70
2023/01/13 07:38:43;;;;;;;4.95;2.38;;;9.30;99.90;;;;;;5025638;28;20489;-71
2023/01/13 07:44:03;;;;;;;6.20;2.22;;;9.30;99.90;;;;;;5029891;28;20037;-70
2023/01/13 07:46:32;;;;;;;6.32;2.10;;;9.20;99.90;;;;;;5028433;28;20052;-70
2023/01/13 07:48:59;;;;;;;4.05;2.15;;;9.30;99.90;;;;;;5029086;28;20042;-70
2023/01/13 07:51:27;;;;;;;4.82;1.95;;;9.40;99.90;;;;;;5028968;28;20069;-70
2023/01/13 07:53:54;;;;;;;4.00;2.65;;;9.40;99.90;;;;;;5030337;28;20135;-70
2023/01/13 07:56:21;;;;;;;4.75;1.80;;;9.40;99.90;;;;;;5028771;28;20049;-71
2023/01/13 07:58:49;;;;;;;5.22;1.67;;;9.30;99.90;;;;;;5029391;28;20518;-70
2023/01/13 08:01:18;;;;;;;3.67;1.85;;;9.30;99.90;;;;;;5029759;28;20042;-71
2023/01/13 08:03:45;;;;;;;5.53;1.80;;;9.30;99.90;;;;;;5010170;28;20053;-70
2023/01/13 08:06:13;;;;;;;6.03;2.13;;;9.30;99.90;;;;;;5028536;28;20046;-71
2023/01/13 08:08:41;;;;;;;7.20;2.20;;;9.30;99.90;;;;;;5031039;28;20092;-70
2023/01/13 08:11:08;;;;;;;4.68;1.95;;;9.30;99.90;;;;;;5028891;28;20056;-69
2023/01/13 08:13:36;;;;;;;3.88;2.00;;;9.30;99.90;;;;;;5044143;28;20041;-72
2023/01/13 08:16:06;;;;;;;2.03;1.35;;;9.30;99.90;;;;;;5032567;28;20041;-69
2023/01/13 08:18:34;;;;;;;4.80;2.05;;;9.40;99.90;;;;;;5032399;28;20041;-69
2023/01/13 08:21:07;;;;;;;4.53;1.95;;;9.30;99.90;;;;;;5030199;28;20096;-68
2023/01/13 08:23:35;;;;;;;6.30;1.90;;;9.30;99.90;;;;;;5031617;28;20431;-68
2023/01/13 08:26:09;;;;;;;5.25;2.13;;;9.30;99.90;;;;;;5041810;28;20039;-69
2023/01/13 08:28:39;;;;;;;6.05;1.70;;;9.40;99.90;;;;;;5034903;28;20053;-70
2023/01/13 08:31:09;;;;;;;4.88;1.80;;;9.40;99.90;;;;;;5050845;28;20057;-69
2023/01/13 08:33:37;;;;;;;3.80;1.70;;;9.40;99.90;;;;;;5052287;28;20482;-70
2023/01/13 08:36:06;;;;;;;7.47;2.35;;;9.50;99.90;;;;;;5052064;28;20120;-70
2023/01/13 08:38:35;;;;;;;5.00;2.03;;;9.50;99.90;;;;;;5047964;28;20632;-69
2023/01/13 08:41:10;;;;;;;3.83;1.90;;;9.50;99.90;;;;;;5039016;28;20342;-69
2023/01/13 08:43:38;;;;;;;3.88;1.90;;;9.50;99.90;;;;;;5044364;28;20456;-69
2023/01/13 08:46:05;;;;;;;6.30;2.20;;;9.50;99.90;;;;;;5048534;28;20056;-68
2023/01/13 08:48:33;;;;;;;4.88;1.63;;;9.50;99.90;;;;;;5048835;28;20494;-69
2023/01/13 08:51:03;;;;;;;4.57;2.13;;;9.50;99.90;;;;;;5048824;28;20052;-70
2023/01/13 08:53:31;;;;;;;4.35;1.77;;;9.60;99.90;;;;;;5052232;28;20055;-68
2023/01/13 08:55:58;;;;;;;3.38;1.90;;;9.60;99.90;;;;;;5051948;28;20525;-69
2023/01/13 08:58:26;;;;;;;3.58;1.90;;;9.60;99.90;;;;;;5032586;28;20051;-69
2023/01/13 09:00:53;;;;;;;3.35;1.70;;;9.60;99.90;;;;;;5036249;28;20472;-69
2023/01/13 09:03:21;;;;;;;3.42;1.58;;;9.60;99.90;;;;;;5051283;28;20057;-69
2023/01/13 09:05:49;;;;;;;6.90;1.45;;;9.60;99.90;;;;;;5050929;28;20052;-70
2023/01/13 09:08:16;;;;;;;4.28;1.52;;;9.50;99.90;;;;;;5050251;28;20041;-70
2023/01/13 09:10:43;;;;;;;3.55;1.70;;;9.50;99.90;;;;;;5052576;28;20064;-70
2023/01/13 09:13:14;;;;;;;2.60;1.30;;;9.50;99.90;;;;;;5050354;28;20399;-70
2023/01/13 09:15:44;;;;;;;3.30;1.50;;;9.60;99.90;;;;;;5051272;28;20045;-69
2023/01/13 09:18:12;;;;;;;4.47;1.40;;;9.60;99.90;;;;;;5033692;28;20109;-71
2023/01/13 09:20:39;;;;;;;2.03;1.30;;;9.60;99.90;;;;;;5032627;28;20120;-68
2023/01/13 09:23:07;;;;;;;2.60;1.30;;;9.60;99.90;;;;;;5032656;28;20045;-71
2023/01/13 09:25:37;;;;;;;2.70;1.40;;;9.70;99.90;;;;;;5032945;28;20512;-70
2023/01/13 09:28:06;;;;;;;3.67;1.60;;;9.70;99.90;;;;;;5052518;28;20047;-71
2023/01/13 09:30:36;;;;;;;2.45;1.50;;;9.70;99.90;;;;;;5052147;28;20059;-70
2023/01/13 09:35:49;;;;;;;4.03;1.73;;;9.70;99.90;;;;;;5038224;28;20040;-70
2023/01/13 09:38:16;;;;;;;3.33;1.60;;;9.70;99.90;;;;;;5052378;28;20124;-69
2023/01/13 09:40:47;;;;;;;3.33;1.20;;;9.70;99.90;;;;;;5050980;28;20049;-70
2023/01/13 09:43:52;;;;;;;3.17;1.20;;;9.60;99.90;;;;;;5024828;28;20485;-69
2023/01/13 09:46:48;;;;;;;2.13;1.10;;;9.50;99.90;;;;;;5046110;28;20046;-71
2023/01/13 09:49:28;;;;;;;4.95;1.50;;;9.40;99.90;;;;;;5009935;28;20153;-71
2023/01/13 09:52:10;;;;;;;5.75;1.63;;;9.30;99.90;;;;;;5009583;28;20045;-70
2023/01/13 09:54:42;;;;;;;3.00;1.35;;;9.10;99.90;;;;;;5010941;28;20041;-70
2023/01/13 09:57:16;;;;;;;2.47;1.20;;;8.90;99.90;;;;;;5023698;28;20136;-69
2023/01/13 09:59:44;;;;;;;2.20;1.13;;;8.80;99.90;;;;;;5050708;28;20072;-69
2023/01/13 10:02:32;;;;;;;4.03;1.10;;;8.70;99.90;;;;;;5047345;28;20116;-70
2023/01/13 10:05:11;;;;;;;3.13;1.40;;;8.60;99.90;;;;;;5031746;28;20056;-68
2023/01/13 10:07:55;;;;;;;2.40;1.17;;;8.60;99.90;;;;;;5030862;28;20101;-71
2023/01/13 10:10:45;;;;;;;3.90;1.10;;;8.50;99.90;;;;;;5031275;28;20504;-68
2023/01/13 10:13:20;;;;;;;8.50;1.55;;;8.50;99.90;;;;;;5000837;28;20044;-69
2023/01/13 10:16:12;;;;;;;5.93;1.60;;;8.50;99.90;;;;;;5029204;28;20468;-70
2023/01/13 10:18:57;;;;;;;3.35;1.42;;;8.30;99.90;;;;;;5044544;28;20136;-68
2023/01/13 10:21:37;;;;;;;3.55;1.50;;;8.30;99.90;;;;;;5031614;28;21459;-69
2023/01/13 10:24:13;;;;;;;3.85;1.65;;;8.20;99.90;;;;;;5049062;28;20535;-68
2023/01/13 10:27:11;;;;;;;3.33;1.23;;;8.20;99.90;;;;;;5049062;28;20080;-68
2023/01/13 10:29:38;;;;;;;3.90;1.35;;;8.30;99.90;;;;;;5051251;28;20048;-68
2023/01/13 10:32:06;;;;;;;2.92;1.20;;;8.30;99.90;;;;;;5033775;28;20049;-69
2023/01/13 10:34:46;;;;;;;2.83;1.20;;;8.30;99.90;;;;;;5030126;28;20046;-68
2023/01/13 10:37:26;;;;;;;7.00;1.60;;;8.40;99.90;;;;;;5029982;28;20046;-69
2023/01/13 10:39:55;;;;;;;5.03;2.00;;;8.40;99.90;;;;;;5047040;28;20426;-68
2023/01/13 10:42:23;;;;;;;5.90;1.63;;;8.40;99.90;;;;;;5048747;28;20044;-68
2023/01/13 10:44:56;;;;;;;4.68;1.73;;;8.40;99.90;;;;;;5046453;28;20053;-69
2023/01/13 10:47:26;;;;;;;11.05;4.03;;;8.40;99.90;;;;;;5050478;28;20048;-69
2023/01/13 10:50:11;;;;;;;4.53;1.80;;;8.40;99.90;;;;;;5048095;28;20076;-68
2023/01/13 10:53:22;;;;;;;3.58;1.58;;;8.40;99.90;;;;;;5050877;28;20045;-68
2023/01/13 10:56:00;;;;;;;2.70;1.25;;;8.50;99.90;;;;;;5048859;28;20475;-69
2023/01/13 10:58:28;;;;;;;3.50;1.27;;;8.50;99.90;;;;;;5050084;28;20459;-68
2023/01/13 11:01:04;;;;;;;4.32;1.30;;;8.50;99.90;;;;;;5049964;28;20108;-68
2023/01/13 11:03:41;;;;;;;5.25;2.83;;;8.60;99.90;;;;;;5051003;28;20094;-69
2023/01/13 11:06:20;;;;;;;3.55;1.10;;;8.70;99.90;;;;;;5048719;28;20077;-70
2023/01/13 11:08:49;;;;;;;2.95;1.30;;;8.90;99.90;;;;;;5045136;28;20409;-68
2023/01/13 11:11:45;;;;;;;2.80;1.25;;;8.90;99.90;;;;;;5023651;28;20394;-69
2023/01/13 11:14:40;;;;;;;1.58;1.00;;;9.10;99.90;;;;;;5045167;28;20041;-69
2023/01/13 11:17:24;;;;;;;2.80;1.20;;;9.30;99.90;;;;;;5040073;28;20088;-68
2023/01/13 11:20:21;;;;;;;3.40;1.00;;;9.40;99.90;;;;;;5042161;28;20446;-68
2023/01/13 11:22:53;;;;;;;2.58;1.35;;;9.40;99.90;;;;;;5030145;28;20042;-68
2023/01/13 11:25:32;;;;;;;;;;;9.40;99.90;;;;;;5012938;28;20449;-68
2023/01/13 11:28:34;;;;;;;2.70;1.00;;;9.40;99.90;;;;;;5035567;28;19927;-68
2023/01/13 11:31:07;;;;;;;2.22;1.08;;;9.70;99.90;;;;;;5050595;28;20415;-68
2023/01/13 11:33:45;;;;;;;3.72;1.40;;;9.60;99.90;;;;;;5048723;28;20136;-68
2023/01/13 11:36:22;;;;;;;5.47;1.63;;;9.50;99.90;;;;;;5050935;28;20407;-68
2023/01/13 11:39:23;;;;;;;3.25;1.10;;;9.50;99.90;;;;;;5032243;28;20044;-68
2023/01/13 11:44:56;;;;;;;3.95;1.17;;;9.80;99.90;;;;;;5014800;28;20073;-68
2023/01/13 11:47:25;;;;;;;4.25;1.13;;;9.60;99.90;;;;;;5009800;28;20133;-68
2023/01/13 11:49:53;;;;;;;3.15;1.15;;;9.30;99.90;;;;;;5010601;28;20129;-68
2023/01/13 11:52:26;;;;;;;2.15;1.00;;;9.20;99.90;;;;;;4999585;28;20053;-68
2023/01/13 11:55:05;;;;;;;6.15;1.40;;;9.30;99.90;;;;;;5031981;28;20136;-68
2023/01/13 11:57:35;;;;;;;2.85;1.48;;;9.40;99.90;;;;;;5023090;28;20049;-68
2023/01/13 12:00:26;;;;;;;5.15;1.40;;;9.40;99.90;;;;;;5030528;28;20046;-68
2023/01/13 12:03:21;;;;;;;3.55;1.30;;;9.30;99.90;;;;;;5013445;28;20042;-68
2023/01/13 12:06:15;;;;;;;5.15;1.30;;;9.30;99.90;;;;;;5029622;28;20046;-68
2023/01/13 12:08:43;;;;;;;5.07;1.20;;;9.30;99.90;;;;;;5015572;28;20495;-67
2023/01/13 12:11:26;;;;;;;5.78;1.40;;;9.20;99.90;;;;;;5002867;28;20082;-68
2023/01/13 12:14:24;;;;;;;6.55;1.70;;;9.10;99.90;;;;;;5021507;28;20077;-69
2023/01/13 12:16:52;;;;;;;7.05;1.40;;;9.10;99.90;;;;;;4991371;28;20084;-68
2023/01/13 12:19:27;;;;;;;4.75;1.50;;;9.10;99.90;;;;;;5013254;28;20038;-67
2023/01/13 12:22:13;;;;;;;4.78;1.50;;;9.10;99.90;;;;;;5031578;28;20037;-67
2023/01/13 12:24:53;;;;;;;3.78;1.52;;;9.10;99.90;;;;;;5052230;28;20045;-68
2023/01/13 12:27:26;;;;;;;5.38;1.30;;;9.10;99.90;;;;;;5052771;28;20140;-69
2023/01/13 12:29:57;;;;;;;;;;;9.10;99.90;;;;;;5052890;28;20075;-68
2023/01/13 12:32:35;;;;;;;4.82;1.52;;;9.10;99.90;;;;;;5034211;28;19921;-68
2023/01/13 12:35:29;;;;;;;7.47;1.60;;;9.00;99.90;;;;;;5052254;28;20041;-68
2023/01/13 12:38:32;;;;;;;8.48;1.70;;;9.00;99.90;;;;;;5053232;28;20438;-69
2023/01/13 12:41:23;;;;;;;5.78;1.50;;;8.90;99.90;;;;;;5050978;28;20052;-68
2023/01/13 12:46:57;;;;;;;4.03;1.88;;;9.00;99.90;;;;;;5052205;28;20407;-69
2023/01/13 12:49:32;;;;;;;4.18;1.60;;;9.00;99.90;;;;;;5037495;28;20459;-68
2023/01/13 12:52:11;;;;;;;6.55;1.85;;;9.10;99.90;;;;;;5033513;28;20053;-68
2023/01/13 12:54:38;;;;;;;2.58;1.48;;;9.10;99.90;;;;;;5051430;28;20052;-68
2023/01/13 12:57:25;;;;;;;4.15;1.50;;;9.00;99.90;;;;;;5050368;28;20488;-71
2023/01/13 12:59:58;;;;;;;2.88;1.60;;;9.00;99.90;;;;;;5052465;28;20037;-68
2023/01/13 13:02:31;;;;;;;6.90;1.80;;;9.00;99.90;;;;;;5050743;28;20083;-68
2023/01/13 13:05:13;;;;;;;6.13;2.45;;;8.90;99.90;;;;;;5052865;28;20060;-69
2023/01/13 13:07:44;;;;;;;5.20;2.10;;;8.90;99.90;;;;;;5053095;28;20466;-69
2023/01/13 13:10:33;;;;;;;5.83;2.37;;;9.10;99.90;;;;;;5052820;28;20052;-70
2023/01/13 13:13:16;;;;;;;4.78;2.05;;;9.10;99.90;;;;;;5034583;28;20307;-69
2023/01/13 13:15:49;;;;;;;5.05;1.88;;;9.00;99.90;;;;;;5051475;28;20048;-70
2023/01/13 13:18:16;;;;;;;5.97;1.73;;;9.00;99.90;;;;;;5034145;28;20492;-69
2023/01/13 13:21:07;;;;;;;6.63;2.30;;;9.00;99.90;;;;;;5036408;28;20067;-69
2023/01/13 13:23:47;;;;;;;4.45;1.60;;;9.00;99.90;;;;;;5052758;28;20127;-67
2023/01/13 13:26:23;;;;;;;7.75;2.00;;;9.00;99.90;;;;;;5044811;28;20049;-70
2023/01/13 13:29:25;;;;;;;8.90;1.90;;;9.00;99.90;;;;;;5031820;28;20056;-69
2023/01/13 13:31:58;;;;;;;7.82;2.05;;;8.90;99.90;;;;;;5014203;28;20041;-70
2023/01/13 13:34:35;;;;;;;6.70;1.85;;;9.00;99.90;;;;;;5032578;28;20053;-70
2023/01/13 13:37:16;;;;;;;5.93;1.67;;;9.20;99.90;;;;;;5043978;28;20052;-69
2023/01/13 13:48:23;;;;;;;3.38;1.25;;;9.30;99.90;;;;;;5043683;28;20123;-70
2023/01/13 13:50:56;;;;;;;7.25;1.77;;;9.20;99.90;;;;;;5032140;28;20061;-68
2023/01/13 13:53:32;;;;;;;6.60;1.70;;;9.00;99.90;;;;;;5050784;28;20047;-69
2023/01/13 13:56:02;;;;;;;6.68;1.90;;;8.80;99.90;;;;;;5049187;28;20043;-68
2023/01/13 13:58:32;;;;;;;6.78;1.70;;;8.70;99.90;;;;;;5050100;28;20463;-68
2023/01/13 14:01:00;;;;;;;4.28;1.45;;;8.70;99.90;;;;;;5050276;28;20425;-69
2023/01/13 14:03:34;;;;;;;5.63;2.00;;;8.60;99.90;;;;;;5033518;28;20107;-70
2023/01/13 14:06:05;;;;;;;9.60;2.28;;;8.70;99.90;;;;;;5051284;28;20084;-69
2023/01/13 14:08:38;;;;;;;5.97;1.98;;;8.70;99.90;;;;;;5049287;28;20080;-69
2023/01/13 14:11:37;;;;;;;;;;;8.80;99.90;;;;;;5051036;28;20142;-68
2023/01/13 14:14:11;;;;;;;5.20;1.50;;;8.80;99.90;;;;;;5017738;28;19921;-70
2023/01/13 14:16:39;;;;;;;7.07;2.38;;;8.70;99.90;;;;;;5043997;28;20112;-69
2023/01/13 14:19:28;;;;;;;5.15;2.10;;;8.70;99.90;;;;;;5031690;28;20053;-69